Terminal Aerodrome Forecast
Issued by NWS

Home | Current Version | Previous Version | Text Only | Print | Product List | Glossary Off
Versions: 1 2 3 4 5 6 7 8 9 10 11 12 13 14 15 16 17 18

693
FTUS43 KMPX 120520
TAFRWF
TAF
KRWF 120520Z 1206/1306 29007KT P6SM -SN OVC020
     FM120900 32010KT P6SM OVC025
     FM121400 32015G23KT P6SM SKC
     FM122200 32009KT P6SM SKC=

USA.gov is the U.S. government's official web portal to all federal, state and local government web resources and services.